Thousand Oaks, California
Current Conditions -  °F | °C
As of 6:55 AM on Monday 22 Dec 2014 (Local Time) from KCMA Reporting Station
Clear Clear  
Wind Chill: 47°   Ceiling: Unl
Heat Index: 49°   Visibility: 10mi
Dew Point: 45°   Wind: 6mph
Humidity: 86%   Direction: 70°ENE
Pressure: 30.04"   Gusts: NA
Location:  34.19°N, 118.89°W
Report Text: KCMA 221455Z 07005KT 10SM CLR 09/07 A3004 RMK AO2 SLP180 T00940072 53007
Loading
Personal Weather Stations






























Interactive Weather Map New forecast layout! Learn more

10-Day Weather Forecast

Advertisements
Track Severe Weather on mobile